sensor_id;sensor_type;location;lat;lon;timestamp;P1;durP1;ratioP1;P2;durP2;ratioP2
4061;SDS011;2046;47.064;15.456;2022-09-13T00:01:47;0.10;;;0.10;;
4061;SDS011;2046;47.064;15.456;2022-09-13T00:04:14;0.20;;;0.20;;
4061;SDS011;2046;47.064;15.456;2022-09-13T00:06:40;0.15;;;0.15;;
4061;SDS011;2046;47.064;15.456;2022-09-13T00:09:07;0.20;;;0.20;;
4061;SDS011;2046;47.064;15.456;2022-09-13T00:11:34;0.20;;;0.20;;
4061;SDS011;2046;47.064;15.456;2022-09-13T00:14:00;0.10;;;0.10;;
4061;SDS011;2046;47.064;15.456;2022-09-13T00:16:28;0.20;;;0.20;;
4061;SDS011;2046;47.064;15.456;2022-09-13T00:18:54;0.20;;;0.20;;
4061;SDS011;2046;47.064;15.456;2022-09-13T00:21:22;0.10;;;0.10;;
4061;SDS011;2046;47.064;15.456;2022-09-13T00:23:50;0.10;;;0.10;;
4061;SDS011;2046;47.064;15.456;2022-09-13T00:26:21;0.10;;;0.10;;
4061;SDS011;2046;47.064;15.456;2022-09-13T00:28:52;0.20;;;0.20;;
4061;SDS011;2046;47.064;15.456;2022-09-13T00:31:19;0.10;;;0.10;;
4061;SDS011;2046;47.064;15.456;2022-09-13T00:33:46;0.10;;;0.10;;
4061;SDS011;2046;47.064;15.456;2022-09-13T00:36:12;0.20;;;0.20;;
4061;SDS011;2046;47.064;15.456;2022-09-13T00:38:41;0.20;;;0.20;;
4061;SDS011;2046;47.064;15.456;2022-09-13T00:41:12;0.10;;;0.10;;
4061;SDS011;2046;47.064;15.456;2022-09-13T00:46:05;0.20;;;0.20;;
4061;SDS011;2046;47.064;15.456;2022-09-13T00:48:32;0.10;;;0.10;;
4061;SDS011;2046;47.064;15.456;2022-09-13T00:50:59;0.10;;;0.10;;
4061;SDS011;2046;47.064;15.456;2022-09-13T00:53:28;0.10;;;0.10;;
4061;SDS011;2046;47.064;15.456;2022-09-13T00:55:57;0.10;;;0.10;;
4061;SDS011;2046;47.064;15.456;2022-09-13T00:58:26;0.10;;;0.10;;
4061;SDS011;2046;47.064;15.456;2022-09-13T01:00:55;0.20;;;0.20;;
4061;SDS011;2046;47.064;15.456;2022-09-13T01:03:23;0.10;;;0.10;;
4061;SDS011;2046;47.064;15.456;2022-09-13T01:05:54;0.10;;;0.10;;
4061;SDS011;2046;47.064;15.456;2022-09-13T01:08:22;0.10;;;0.10;;
4061;SDS011;2046;47.064;15.456;2022-09-13T01:10:52;0.10;;;0.10;;
4061;SDS011;2046;47.064;15.456;2022-09-13T01:13:20;0.10;;;0.10;;
4061;SDS011;2046;47.064;15.456;2022-09-13T01:15:48;0.20;;;0.20;;
4061;SDS011;2046;47.064;15.456;2022-09-13T01:18:15;0.20;;;0.20;;
4061;SDS011;2046;47.064;15.456;2022-09-13T01:26:01;0.20;;;0.20;;
4061;SDS011;2046;47.064;15.456;2022-09-13T01:33:44;0.20;;;0.20;;
4061;SDS011;2046;47.064;15.456;2022-09-13T01:41:19;0.10;;;0.10;;
4061;SDS011;2046;47.064;15.456;2022-09-13T01:46:43;0.20;;;0.20;;
4061;SDS011;2046;47.064;15.456;2022-09-13T01:49:56;0.10;;;0.10;;
4061;SDS011;2046;47.064;15.456;2022-09-13T01:52:04;0.20;;;0.20;;
4061;SDS011;2046;47.064;15.456;2022-09-13T01:54:35;0.15;;;0.15;;
4061;SDS011;2046;47.064;15.456;2022-09-13T01:57:08;0.10;;;0.10;;
4061;SDS011;2046;47.064;15.456;2022-09-13T01:59:59;0.20;;;0.20;;
4061;SDS011;2046;47.064;15.456;2022-09-13T02:04:57;0.20;;;0.20;;
4061;SDS011;2046;47.064;15.456;2022-09-13T02:07:34;0.10;;;0.10;;
4061;SDS011;2046;47.064;15.456;2022-09-13T02:10:04;0.10;;;0.10;;
4061;SDS011;2046;47.064;15.456;2022-09-13T02:12:31;0.20;;;0.20;;
4061;SDS011;2046;47.064;15.456;2022-09-13T02:15:02;0.10;;;0.10;;
4061;SDS011;2046;47.064;15.456;2022-09-13T02:17:35;0.10;;;0.10;;
4061;SDS011;2046;47.064;15.456;2022-09-13T02:20:05;0.10;;;0.10;;
4061;SDS011;2046;47.064;15.456;2022-09-13T02:22:34;0.10;;;0.10;;
4061;SDS011;2046;47.064;15.456;2022-09-13T02:25:06;0.20;;;0.20;;
4061;SDS011;2046;47.064;15.456;2022-09-13T02:27:34;0.20;;;0.20;;
4061;SDS011;2046;47.064;15.456;2022-09-13T02:30:06;0.10;;;0.10;;
4061;SDS011;2046;47.064;15.456;2022-09-13T02:32:37;0.10;;;0.10;;
4061;SDS011;2046;47.064;15.456;2022-09-13T02:37:33;0.20;;;0.20;;
4061;SDS011;2046;47.064;15.456;2022-09-13T02:40:03;0.10;;;0.10;;
4061;SDS011;2046;47.064;15.456;2022-09-13T02:42:35;0.10;;;0.10;;
4061;SDS011;2046;47.064;15.456;2022-09-13T02:45:03;0.20;;;0.20;;
4061;SDS011;2046;47.064;15.456;2022-09-13T02:47:37;0.10;;;0.10;;
4061;SDS011;2046;47.064;15.456;2022-09-13T02:52:35;0.10;;;0.10;;
4061;SDS011;2046;47.064;15.456;2022-09-13T02:57:38;0.20;;;0.20;;
4061;SDS011;2046;47.064;15.456;2022-09-13T03:00:06;0.10;;;0.10;;
4061;SDS011;2046;47.064;15.456;2022-09-13T03:02:33;0.10;;;0.10;;
4061;SDS011;2046;47.064;15.456;2022-09-13T03:05:02;0.20;;;0.20;;
4061;SDS011;2046;47.064;15.456;2022-09-13T03:07:28;0.10;;;0.10;;
4061;SDS011;2046;47.064;15.456;2022-09-13T03:09:57;0.20;;;0.20;;
4061;SDS011;2046;47.064;15.456;2022-09-13T03:17:39;0.10;;;0.10;;
4061;SDS011;2046;47.064;15.456;2022-09-13T03:20:13;0.20;;;0.20;;
4061;SDS011;2046;47.064;15.456;2022-09-13T03:28:04;0.13;;;0.13;;
4061;SDS011;2046;47.064;15.456;2022-09-13T03:30:34;0.10;;;0.10;;
4061;SDS011;2046;47.064;15.456;2022-09-13T03:33:06;0.20;;;0.20;;
4061;SDS011;2046;47.064;15.456;2022-09-13T03:38:30;0.10;;;0.10;;
4061;SDS011;2046;47.064;15.456;2022-09-13T03:43:25;0.10;;;0.10;;
4061;SDS011;2046;47.064;15.456;2022-09-13T03:46:01;0.10;;;0.10;;
4061;SDS011;2046;47.064;15.456;2022-09-13T03:48:31;0.20;;;0.20;;
4061;SDS011;2046;47.064;15.456;2022-09-13T03:50:58;0.20;;;0.20;;
4061;SDS011;2046;47.064;15.456;2022-09-13T03:53:26;0.10;;;0.10;;
4061;SDS011;2046;47.064;15.456;2022-09-13T03:55:53;0.20;;;0.20;;
4061;SDS011;2046;47.064;15.456;2022-09-13T03:58:20;0.20;;;0.20;;
4061;SDS011;2046;47.064;15.456;2022-09-13T04:00:47;0.10;;;0.10;;
4061;SDS011;2046;47.064;15.456;2022-09-13T04:03:14;0.20;;;0.20;;
4061;SDS011;2046;47.064;15.456;2022-09-13T04:05:40;0.20;;;0.20;;
4061;SDS011;2046;47.064;15.456;2022-09-13T04:08:07;0.20;;;0.20;;
4061;SDS011;2046;47.064;15.456;2022-09-13T04:10:34;0.10;;;0.10;;
4061;SDS011;2046;47.064;15.456;2022-09-13T04:13:01;0.10;;;0.10;;
4061;SDS011;2046;47.064;15.456;2022-09-13T04:15:29;0.10;;;0.10;;
4061;SDS011;2046;47.064;15.456;2022-09-13T04:17:56;0.10;;;0.10;;
4061;SDS011;2046;47.064;15.456;2022-09-13T04:20:23;0.15;;;0.15;;
4061;SDS011;2046;47.064;15.456;2022-09-13T04:22:51;0.10;;;0.10;;
4061;SDS011;2046;47.064;15.456;2022-09-13T04:25:18;0.20;;;0.20;;
4061;SDS011;2046;47.064;15.456;2022-09-13T04:27:45;0.20;;;0.20;;
4061;SDS011;2046;47.064;15.456;2022-09-13T04:30:12;1.80;;;1.70;;
4061;SDS011;2046;47.064;15.456;2022-09-13T04:32:40;1.98;;;1.58;;
4061;SDS011;2046;47.064;15.456;2022-09-13T04:35:07;5.32;;;2.10;;
4061;SDS011;2046;47.064;15.456;2022-09-13T04:37:34;3.13;;;1.90;;
4061;SDS011;2046;47.064;15.456;2022-09-13T04:40:01;3.28;;;2.05;;
4061;SDS011;2046;47.064;15.456;2022-09-13T04:42:27;2.03;;;1.83;;
4061;SDS011;2046;47.064;15.456;2022-09-13T04:44:54;2.25;;;2.00;;
4061;SDS011;2046;47.064;15.456;2022-09-13T04:47:21;3.65;;;1.83;;
4061;SDS011;2046;47.064;15.456;2022-09-13T04:49:47;2.00;;;1.80;;
4061;SDS011;2046;47.064;15.456;2022-09-13T04:52:14;1.92;;;1.70;;
4061;SDS011;2046;47.064;15.456;2022-09-13T04:54:41;3.17;;;1.85;;
4061;SDS011;2046;47.064;15.456;2022-09-13T04:57:07;2.97;;;2.10;;
4061;SDS011;2046;47.064;15.456;2022-09-13T04:59:34;1.88;;;1.77;;
4061;SDS011;2046;47.064;15.456;2022-09-13T05:02:00;2.67;;;1.83;;
4061;SDS011;2046;47.064;15.456;2022-09-13T05:04:27;3.08;;;2.00;;
4061;SDS011;2046;47.064;15.456;2022-09-13T05:06:53;2.22;;;2.00;;
4061;SDS011;2046;47.064;15.456;2022-09-13T05:09:20;4.93;;;2.20;;
4061;SDS011;2046;47.064;15.456;2022-09-13T05:11:46;2.97;;;2.38;;
4061;SDS011;2046;47.064;15.456;2022-09-13T05:14:13;1.90;;;1.80;;
4061;SDS011;2046;47.064;15.456;2022-09-13T05:16:40;2.95;;;2.08;;
4061;SDS011;2046;47.064;15.456;2022-09-13T05:19:07;2.38;;;2.17;;
4061;SDS011;2046;47.064;15.456;2022-09-13T05:21:34;3.10;;;2.20;;
4061;SDS011;2046;47.064;15.456;2022-09-13T05:24:01;4.03;;;2.10;;
4061;SDS011;2046;47.064;15.456;2022-09-13T05:26:28;3.20;;;2.40;;
4061;SDS011;2046;47.064;15.456;2022-09-13T05:28:57;2.55;;;1.88;;
4061;SDS011;2046;47.064;15.456;2022-09-13T05:31:25;1.67;;;1.58;;
4061;SDS011;2046;47.064;15.456;2022-09-13T05:33:55;3.47;;;1.65;;
4061;SDS011;2046;47.064;15.456;2022-09-13T05:36:21;1.95;;;1.83;;
4061;SDS011;2046;47.064;15.456;2022-09-13T05:38:48;2.60;;;2.08;;
4061;SDS011;2046;47.064;15.456;2022-09-13T05:41:32;2.53;;;2.33;;
4061;SDS011;2046;47.064;15.456;2022-09-13T05:43:58;2.38;;;2.17;;
4061;SDS011;2046;47.064;15.456;2022-09-13T05:46:37;2.42;;;2.10;;
4061;SDS011;2046;47.064;15.456;2022-09-13T05:49:04;3.97;;;2.05;;
4061;SDS011;2046;47.064;15.456;2022-09-13T05:51:31;2.35;;;2.13;;
4061;SDS011;2046;47.064;15.456;2022-09-13T05:53:58;5.93;;;2.63;;
4061;SDS011;2046;47.064;15.456;2022-09-13T05:56:26;2.45;;;2.20;;
4061;SDS011;2046;47.064;15.456;2022-09-13T05:58:53;2.60;;;2.00;;
4061;SDS011;2046;47.064;15.456;2022-09-13T06:01:21;3.80;;;2.03;;
4061;SDS011;2046;47.064;15.456;2022-09-13T06:03:49;2.20;;;2.00;;
4061;SDS011;2046;47.064;15.456;2022-09-13T06:06:16;2.00;;;1.90;;
4061;SDS011;2046;47.064;15.456;2022-09-13T06:08:42;2.25;;;2.05;;
4061;SDS011;2046;47.064;15.456;2022-09-13T06:11:10;1.80;;;1.70;;
4061;SDS011;2046;47.064;15.456;2022-09-13T06:13:37;2.35;;;2.15;;
4061;SDS011;2046;47.064;15.456;2022-09-13T06:16:05;3.00;;;2.40;;
4061;SDS011;2046;47.064;15.456;2022-09-13T06:18:32;2.85;;;2.30;;
4061;SDS011;2046;47.064;15.456;2022-09-13T06:20:59;2.25;;;1.70;;
4061;SDS011;2046;47.064;15.456;2022-09-13T06:23:26;4.45;;;2.20;;
4061;SDS011;2046;47.064;15.456;2022-09-13T06:26:03;2.20;;;1.85;;
4061;SDS011;2046;47.064;15.456;2022-09-13T06:28:30;3.05;;;1.95;;
4061;SDS011;2046;47.064;15.456;2022-09-13T06:31:03;2.65;;;2.45;;
4061;SDS011;2046;47.064;15.456;2022-09-13T06:33:31;3.95;;;2.25;;
4061;SDS011;2046;47.064;15.456;2022-09-13T06:35:59;3.75;;;2.25;;
4061;SDS011;2046;47.064;15.456;2022-09-13T06:38:26;4.63;;;2.92;;
4061;SDS011;2046;47.064;15.456;2022-09-13T06:43:32;2.88;;;2.60;;
4061;SDS011;2046;47.064;15.456;2022-09-13T06:45:59;3.03;;;2.05;;
4061;SDS011;2046;47.064;15.456;2022-09-13T06:48:29;3.35;;;2.00;;
4061;SDS011;2046;47.064;15.456;2022-09-13T06:50:57;4.53;;;2.35;;
4061;SDS011;2046;47.064;15.456;2022-09-13T06:53:24;2.55;;;2.35;;
4061;SDS011;2046;47.064;15.456;2022-09-13T06:55:58;6.00;;;2.95;;
4061;SDS011;2046;47.064;15.456;2022-09-13T06:58:25;4.35;;;2.60;;
4061;SDS011;2046;47.064;15.456;2022-09-13T07:01:03;2.42;;;2.10;;
4061;SDS011;2046;47.064;15.456;2022-09-13T07:03:30;4.47;;;2.45;;
4061;SDS011;2046;47.064;15.456;2022-09-13T07:05:56;4.80;;;2.30;;
4061;SDS011;2046;47.064;15.456;2022-09-13T07:08:23;3.58;;;2.70;;
4061;SDS011;2046;47.064;15.456;2022-09-13T07:10:49;7.55;;;2.30;;
4061;SDS011;2046;47.064;15.456;2022-09-13T07:13:16;9.45;;;2.72;;
4061;SDS011;2046;47.064;15.456;2022-09-13T07:15:42;9.25;;;2.50;;
4061;SDS011;2046;47.064;15.456;2022-09-13T07:18:09;8.27;;;2.80;;
4061;SDS011;2046;47.064;15.456;2022-09-13T07:20:36;9.13;;;2.67;;
4061;SDS011;2046;47.064;15.456;2022-09-13T07:23:03;4.43;;;2.67;;
4061;SDS011;2046;47.064;15.456;2022-09-13T07:25:30;4.28;;;2.42;;
4061;SDS011;2046;47.064;15.456;2022-09-13T07:27:56;4.60;;;2.58;;
4061;SDS011;2046;47.064;15.456;2022-09-13T07:30:23;6.30;;;2.75;;
4061;SDS011;2046;47.064;15.456;2022-09-13T07:32:51;4.18;;;2.20;;
4061;SDS011;2046;47.064;15.456;2022-09-13T07:35:18;3.47;;;2.40;;
4061;SDS011;2046;47.064;15.456;2022-09-13T07:37:44;5.40;;;2.60;;
4061;SDS011;2046;47.064;15.456;2022-09-13T07:40:11;5.25;;;2.33;;
4061;SDS011;2046;47.064;15.456;2022-09-13T07:42:39;4.80;;;2.53;;
4061;SDS011;2046;47.064;15.456;2022-09-13T07:45:05;4.32;;;2.47;;
4061;SDS011;2046;47.064;15.456;2022-09-13T07:47:32;5.68;;;3.30;;
4061;SDS011;2046;47.064;15.456;2022-09-13T07:49:59;9.73;;;6.25;;
4061;SDS011;2046;47.064;15.456;2022-09-13T07:52:27;11.77;;;5.10;;
4061;SDS011;2046;47.064;15.456;2022-09-13T07:54:53;8.45;;;3.88;;
4061;SDS011;2046;47.064;15.456;2022-09-13T07:57:20;6.38;;;3.85;;
4061;SDS011;2046;47.064;15.456;2022-09-13T07:59:47;7.43;;;3.50;;
4061;SDS011;2046;47.064;15.456;2022-09-13T08:02:13;6.13;;;3.05;;
4061;SDS011;2046;47.064;15.456;2022-09-13T08:04:41;8.07;;;3.20;;
4061;SDS011;2046;47.064;15.456;2022-09-13T08:07:07;4.80;;;2.70;;
4061;SDS011;2046;47.064;15.456;2022-09-13T08:09:34;7.35;;;2.60;;
4061;SDS011;2046;47.064;15.456;2022-09-13T08:12:00;5.32;;;2.50;;
4061;SDS011;2046;47.064;15.456;2022-09-13T08:14:27;5.18;;;2.25;;
4061;SDS011;2046;47.064;15.456;2022-09-13T08:16:54;5.57;;;2.38;;
4061;SDS011;2046;47.064;15.456;2022-09-13T08:19:21;2.78;;;2.17;;
4061;SDS011;2046;47.064;15.456;2022-09-13T08:21:47;4.93;;;3.03;;
4061;SDS011;2046;47.064;15.456;2022-09-13T08:24:15;3.90;;;2.22;;
4061;SDS011;2046;47.064;15.456;2022-09-13T08:26:42;5.85;;;2.38;;
4061;SDS011;2046;47.064;15.456;2022-09-13T08:29:09;3.90;;;2.40;;
4061;SDS011;2046;47.064;15.456;2022-09-13T08:31:36;5.88;;;2.30;;
4061;SDS011;2046;47.064;15.456;2022-09-13T08:34:03;2.92;;;2.42;;
4061;SDS011;2046;47.064;15.456;2022-09-13T08:36:29;3.60;;;2.50;;
4061;SDS011;2046;47.064;15.456;2022-09-13T08:38:57;3.40;;;2.40;;
4061;SDS011;2046;47.064;15.456;2022-09-13T08:46:43;4.72;;;2.58;;
4061;SDS011;2046;47.064;15.456;2022-09-13T08:49:16;5.05;;;3.00;;
4061;SDS011;2046;47.064;15.456;2022-09-13T08:51:47;2.13;;;1.92;;
4061;SDS011;2046;47.064;15.456;2022-09-13T08:54:15;2.53;;;2.08;;
4061;SDS011;2046;47.064;15.456;2022-09-13T09:04:14;4.18;;;2.40;;
4061;SDS011;2046;47.064;15.456;2022-09-13T09:06:43;3.13;;;2.60;;
4061;SDS011;2046;47.064;15.456;2022-09-13T09:09:12;3.40;;;2.25;;
4061;SDS011;2046;47.064;15.456;2022-09-13T09:11:41;3.15;;;2.03;;
4061;SDS011;2046;47.064;15.456;2022-09-13T09:16:42;3.38;;;1.92;;
4061;SDS011;2046;47.064;15.456;2022-09-13T09:21:40;3.78;;;1.92;;
4061;SDS011;2046;47.064;15.456;2022-09-13T09:24:09;5.88;;;2.17;;
4061;SDS011;2046;47.064;15.456;2022-09-13T09:26:40;4.78;;;2.00;;
4061;SDS011;2046;47.064;15.456;2022-09-13T09:31:42;2.00;;;1.65;;
4061;SDS011;2046;47.064;15.456;2022-09-13T09:34:17;2.67;;;2.20;;
4061;SDS011;2046;47.064;15.456;2022-09-13T09:36:49;5.93;;;2.00;;
4061;SDS011;2046;47.064;15.456;2022-09-13T09:39:20;5.00;;;1.98;;
4061;SDS011;2046;47.064;15.456;2022-09-13T09:41:46;3.83;;;2.00;;
4061;SDS011;2046;47.064;15.456;2022-09-13T09:44:20;3.78;;;2.17;;
4061;SDS011;2046;47.064;15.456;2022-09-13T09:46:49;4.18;;;2.22;;
4061;SDS011;2046;47.064;15.456;2022-09-13T09:49:17;3.90;;;2.05;;
4061;SDS011;2046;47.064;15.456;2022-09-13T09:52:05;3.40;;;2.30;;
4061;SDS011;2046;47.064;15.456;2022-09-13T09:54:32;5.53;;;2.50;;
4061;SDS011;2046;47.064;15.456;2022-09-13T09:57:00;3.60;;;1.92;;
4061;SDS011;2046;47.064;15.456;2022-09-13T09:59:27;2.15;;;2.00;;
4061;SDS011;2046;47.064;15.456;2022-09-13T10:01:54;2.65;;;2.08;;
4061;SDS011;2046;47.064;15.456;2022-09-13T10:04:23;2.55;;;1.45;;
4061;SDS011;2046;47.064;15.456;2022-09-13T10:07:06;5.05;;;2.35;;
4061;SDS011;2046;47.064;15.456;2022-09-13T10:09:38;2.25;;;2.05;;
4061;SDS011;2046;47.064;15.456;2022-09-13T10:12:24;2.03;;;1.83;;
4061;SDS011;2046;47.064;15.456;2022-09-13T10:14:51;5.53;;;2.13;;
4061;SDS011;2046;47.064;15.456;2022-09-13T10:17:27;2.25;;;2.08;;
4061;SDS011;2046;47.064;15.456;2022-09-13T10:20:18;3.05;;;2.00;;
4061;SDS011;2046;47.064;15.456;2022-09-13T10:22:45;4.13;;;2.15;;
4061;SDS011;2046;47.064;15.456;2022-09-13T10:25:31;2.20;;;1.85;;
4061;SDS011;2046;47.064;15.456;2022-09-13T10:27:58;2.10;;;2.00;;
4061;SDS011;2046;47.064;15.456;2022-09-13T10:30:34;2.90;;;2.13;;
4061;SDS011;2046;47.064;15.456;2022-09-13T10:33:02;2.63;;;2.00;;
4061;SDS011;2046;47.064;15.456;2022-09-13T10:35:30;2.22;;;2.00;;
4061;SDS011;2046;47.064;15.456;2022-09-13T10:37:57;2.83;;;1.98;;
4061;SDS011;2046;47.064;15.456;2022-09-13T10:42:55;5.28;;;1.85;;
4061;SDS011;2046;47.064;15.456;2022-09-13T10:45:24;4.78;;;2.08;;
4061;SDS011;2046;47.064;15.456;2022-09-13T10:47:52;4.28;;;1.92;;
4061;SDS011;2046;47.064;15.456;2022-09-13T10:52:53;2.72;;;2.00;;
4061;SDS011;2046;47.064;15.456;2022-09-13T10:55:31;2.10;;;1.90;;
4061;SDS011;2046;47.064;15.456;2022-09-13T11:21:22;3.22;;;2.00;;
4061;SDS011;2046;47.064;15.456;2022-09-13T11:23:55;2.08;;;1.92;;
4061;SDS011;2046;47.064;15.456;2022-09-13T11:36:17;2.28;;;2.05;;
4061;SDS011;2046;47.064;15.456;2022-09-13T11:39:31;2.17;;;1.80;;
4061;SDS011;2046;47.064;15.456;2022-09-13T11:41:57;3.40;;;1.90;;
4061;SDS011;2046;47.064;15.456;2022-09-13T11:49:48;4.05;;;2.00;;
4061;SDS011;2046;47.064;15.456;2022-09-13T11:54:54;2.15;;;1.95;;
4061;SDS011;2046;47.064;15.456;2022-09-13T11:57:26;3.10;;;1.98;;
4061;SDS011;2046;47.064;15.456;2022-09-13T12:05:25;2.00;;;1.90;;
4061;SDS011;2046;47.064;15.456;2022-09-13T12:08:00;14.15;;;2.33;;
4061;SDS011;2046;47.064;15.456;2022-09-13T12:10:28;2.03;;;1.63;;
4061;SDS011;2046;47.064;15.456;2022-09-13T12:12:57;1.92;;;1.80;;
4061;SDS011;2046;47.064;15.456;2022-09-13T12:17:55;2.17;;;1.75;;
4061;SDS011;2046;47.064;15.456;2022-09-13T12:20:30;1.80;;;1.70;;
4061;SDS011;2046;47.064;15.456;2022-09-13T12:22:58;2.22;;;1.90;;
4061;SDS011;2046;47.064;15.456;2022-09-13T12:28:30;2.33;;;1.63;;
4061;SDS011;2046;47.064;15.456;2022-09-13T12:31:09;1.92;;;1.70;;
4061;SDS011;2046;47.064;15.456;2022-09-13T12:33:38;2.25;;;1.70;;
4061;SDS011;2046;47.064;15.456;2022-09-13T12:36:08;2.17;;;1.70;;
4061;SDS011;2046;47.064;15.456;2022-09-13T12:44:25;1.65;;;1.55;;
4061;SDS011;2046;47.064;15.456;2022-09-13T12:47:10;4.07;;;1.80;;
4061;SDS011;2046;47.064;15.456;2022-09-13T12:54:53;2.35;;;1.63;;
4061;SDS011;2046;47.064;15.456;2022-09-13T12:59:57;1.60;;;1.50;;
4061;SDS011;2046;47.064;15.456;2022-09-13T13:07:48;4.85;;;1.70;;
4061;SDS011;2046;47.064;15.456;2022-09-13T13:10:23;3.53;;;1.60;;
4061;SDS011;2046;47.064;15.456;2022-09-13T13:12:50;1.67;;;1.55;;
4061;SDS011;2046;47.064;15.456;2022-09-13T13:15:52;2.15;;;1.50;;
4061;SDS011;2046;47.064;15.456;2022-09-13T13:23:34;2.30;;;2.00;;
4061;SDS011;2046;47.064;15.456;2022-09-13T13:26:08;2.03;;;1.50;;
4061;SDS011;2046;47.064;15.456;2022-09-13T13:33:51;2.45;;;1.38;;
4061;SDS011;2046;47.064;15.456;2022-09-13T13:36:25;1.67;;;1.55;;
4061;SDS011;2046;47.064;15.456;2022-09-13T13:38:54;1.80;;;1.67;;
4061;SDS011;2046;47.064;15.456;2022-09-13T13:41:45;1.75;;;1.65;;
4061;SDS011;2046;47.064;15.456;2022-09-13T13:46:41;1.63;;;1.50;;
4061;SDS011;2046;47.064;15.456;2022-09-13T13:59:53;2.70;;;2.50;;
4061;SDS011;2046;47.064;15.456;2022-09-13T14:02:21;2.80;;;2.60;;
4061;SDS011;2046;47.064;15.456;2022-09-13T14:20:23;1.80;;;1.70;;
4061;SDS011;2046;47.064;15.456;2022-09-13T14:22:50;1.50;;;1.40;;
4061;SDS011;2046;47.064;15.456;2022-09-13T14:27:47;1.70;;;1.60;;
4061;SDS011;2046;47.064;15.456;2022-09-13T14:30:19;2.63;;;1.73;;
4061;SDS011;2046;47.064;15.456;2022-09-13T14:32:48;2.03;;;1.45;;
4061;SDS011;2046;47.064;15.456;2022-09-13T14:35:34;1.45;;;1.25;;
4061;SDS011;2046;47.064;15.456;2022-09-13T14:38:12;3.00;;;1.67;;
4061;SDS011;2046;47.064;15.456;2022-09-13T14:40:47;3.08;;;1.50;;
4061;SDS011;2046;47.064;15.456;2022-09-13T14:43:14;6.95;;;3.20;;
4061;SDS011;2046;47.064;15.456;2022-09-13T14:45:42;2.25;;;1.80;;
4061;SDS011;2046;47.064;15.456;2022-09-13T14:48:11;1.92;;;1.70;;
4061;SDS011;2046;47.064;15.456;2022-09-13T14:50:47;2.33;;;1.58;;
4061;SDS011;2046;47.064;15.456;2022-09-13T14:53:19;1.95;;;1.65;;
4061;SDS011;2046;47.064;15.456;2022-09-13T14:55:53;2.60;;;1.48;;
4061;SDS011;2046;47.064;15.456;2022-09-13T14:58:26;2.25;;;1.60;;
4061;SDS011;2046;47.064;15.456;2022-09-13T15:03:20;1.75;;;1.65;;
4061;SDS011;2046;47.064;15.456;2022-09-13T15:05:55;1.60;;;1.50;;
4061;SDS011;2046;47.064;15.456;2022-09-13T15:08:56;3.45;;;2.05;;
4061;SDS011;2046;47.064;15.456;2022-09-13T15:11:25;1.95;;;1.73;;
4061;SDS011;2046;47.064;15.456;2022-09-13T15:16:47;2.80;;;1.70;;
4061;SDS011;2046;47.064;15.456;2022-09-13T15:21:49;2.35;;;1.58;;
4061;SDS011;2046;47.064;15.456;2022-09-13T15:24:34;1.80;;;1.60;;
4061;SDS011;2046;47.064;15.456;2022-09-13T15:27:02;3.42;;;1.60;;
4061;SDS011;2046;47.064;15.456;2022-09-13T15:29:29;2.60;;;1.73;;
4061;SDS011;2046;47.064;15.456;2022-09-13T15:32:00;3.05;;;1.60;;
4061;SDS011;2046;47.064;15.456;2022-09-13T15:34:27;2.65;;;1.60;;
4061;SDS011;2046;47.064;15.456;2022-09-13T15:39:27;1.55;;;1.45;;
4061;SDS011;2046;47.064;15.456;2022-09-13T15:41:54;7.60;;;1.65;;
4061;SDS011;2046;47.064;15.456;2022-09-13T15:44:22;2.40;;;1.67;;
4061;SDS011;2046;47.064;15.456;2022-09-13T15:46:49;7.03;;;1.92;;
4061;SDS011;2046;47.064;15.456;2022-09-13T15:49:20;4.13;;;1.48;;
4061;SDS011;2046;47.064;15.456;2022-09-13T15:51:54;4.47;;;1.70;;
4061;SDS011;2046;47.064;15.456;2022-09-13T15:54:21;2.20;;;1.63;;
4061;SDS011;2046;47.064;15.456;2022-09-13T15:56:48;2.45;;;1.67;;
4061;SDS011;2046;47.064;15.456;2022-09-13T15:59:18;6.18;;;1.80;;
4061;SDS011;2046;47.064;15.456;2022-09-13T16:01:46;2.25;;;1.80;;
4061;SDS011;2046;47.064;15.456;2022-09-13T16:04:13;3.08;;;1.92;;
4061;SDS011;2046;47.064;15.456;2022-09-13T16:06:40;12.30;;;5.68;;
4061;SDS011;2046;47.064;15.456;2022-09-13T16:09:19;13.77;;;5.80;;
4061;SDS011;2046;47.064;15.456;2022-09-13T16:11:47;9.30;;;3.95;;
4061;SDS011;2046;47.064;15.456;2022-09-13T16:14:14;7.95;;;3.30;;
4061;SDS011;2046;47.064;15.456;2022-09-13T16:16:42;9.85;;;8.65;;
4061;SDS011;2046;47.064;15.456;2022-09-13T16:19:16;6.53;;;3.85;;
4061;SDS011;2046;47.064;15.456;2022-09-13T16:21:43;4.78;;;3.13;;
4061;SDS011;2046;47.064;15.456;2022-09-13T16:24:09;3.00;;;1.98;;
4061;SDS011;2046;47.064;15.456;2022-09-13T16:26:36;3.95;;;3.47;;
4061;SDS011;2046;47.064;15.456;2022-09-13T16:29:03;5.00;;;3.00;;
4061;SDS011;2046;47.064;15.456;2022-09-13T16:31:29;7.25;;;2.80;;
4061;SDS011;2046;47.064;15.456;2022-09-13T16:33:57;2.72;;;2.20;;
4061;SDS011;2046;47.064;15.456;2022-09-13T16:36:23;3.08;;;2.40;;
4061;SDS011;2046;47.064;15.456;2022-09-13T16:38:50;7.47;;;4.82;;
4061;SDS011;2046;47.064;15.456;2022-09-13T16:41:16;3.85;;;3.47;;
4061;SDS011;2046;47.064;15.456;2022-09-13T16:43:43;7.03;;;3.33;;
4061;SDS011;2046;47.064;15.456;2022-09-13T16:46:09;3.22;;;2.38;;
4061;SDS011;2046;47.064;15.456;2022-09-13T16:48:36;2.90;;;2.55;;
4061;SDS011;2046;47.064;15.456;2022-09-13T16:51:07;3.13;;;2.83;;
4061;SDS011;2046;47.064;15.456;2022-09-13T16:53:35;2.78;;;2.28;;
4061;SDS011;2046;47.064;15.456;2022-09-13T16:56:09;3.65;;;2.03;;
4061;SDS011;2046;47.064;15.456;2022-09-13T16:58:36;2.40;;;1.95;;
4061;SDS011;2046;47.064;15.456;2022-09-13T17:04:07;4.45;;;1.83;;
4061;SDS011;2046;47.064;15.456;2022-09-13T17:06:36;2.15;;;1.77;;
4061;SDS011;2046;47.064;15.456;2022-09-13T17:09:03;3.35;;;1.95;;
4061;SDS011;2046;47.064;15.456;2022-09-13T17:11:33;3.53;;;2.30;;
4061;SDS011;2046;47.064;15.456;2022-09-13T17:14:01;3.35;;;2.10;;
4061;SDS011;2046;47.064;15.456;2022-09-13T17:16:31;3.58;;;1.80;;
4061;SDS011;2046;47.064;15.456;2022-09-13T17:19:00;2.10;;;1.83;;
4061;SDS011;2046;47.064;15.456;2022-09-13T17:21:27;3.38;;;1.95;;
4061;SDS011;2046;47.064;15.456;2022-09-13T17:23:54;2.67;;;1.77;;
4061;SDS011;2046;47.064;15.456;2022-09-13T17:26:21;3.65;;;1.60;;
4061;SDS011;2046;47.064;15.456;2022-09-13T17:28:47;2.72;;;1.90;;
4061;SDS011;2046;47.064;15.456;2022-09-13T17:31:14;2.72;;;2.08;;
4061;SDS011;2046;47.064;15.456;2022-09-13T17:33:41;6.97;;;1.80;;
4061;SDS011;2046;47.064;15.456;2022-09-13T17:36:08;2.17;;;1.73;;
4061;SDS011;2046;47.064;15.456;2022-09-13T17:38:35;4.10;;;1.73;;
4061;SDS011;2046;47.064;15.456;2022-09-13T17:41:03;1.98;;;1.70;;
4061;SDS011;2046;47.064;15.456;2022-09-13T17:43:30;3.58;;;2.00;;
4061;SDS011;2046;47.064;15.456;2022-09-13T17:46:02;4.18;;;2.05;;
4061;SDS011;2046;47.064;15.456;2022-09-13T17:48:29;4.40;;;2.15;;
4061;SDS011;2046;47.064;15.456;2022-09-13T17:50:59;4.07;;;2.03;;
4061;SDS011;2046;47.064;15.456;2022-09-13T17:53:26;4.85;;;1.95;;
4061;SDS011;2046;47.064;15.456;2022-09-13T17:55:53;2.92;;;1.80;;
4061;SDS011;2046;47.064;15.456;2022-09-13T17:58:20;2.45;;;2.10;;
4061;SDS011;2046;47.064;15.456;2022-09-13T18:00:49;3.65;;;1.55;;
4061;SDS011;2046;47.064;15.456;2022-09-13T18:03:15;3.25;;;1.90;;
4061;SDS011;2046;47.064;15.456;2022-09-13T18:05:42;1.70;;;1.60;;
4061;SDS011;2046;47.064;15.456;2022-09-13T18:08:09;4.88;;;1.75;;
4061;SDS011;2046;47.064;15.456;2022-09-13T18:10:35;3.28;;;1.80;;
4061;SDS011;2046;47.064;15.456;2022-09-13T18:13:23;1.73;;;1.48;;
4061;SDS011;2046;47.064;15.456;2022-09-13T18:15:57;4.43;;;1.75;;
4061;SDS011;2046;47.064;15.456;2022-09-13T18:18:23;2.40;;;1.80;;
4061;SDS011;2046;47.064;15.456;2022-09-13T18:20:50;3.53;;;2.15;;
4061;SDS011;2046;47.064;15.456;2022-09-13T18:23:17;2.05;;;1.90;;
4061;SDS011;2046;47.064;15.456;2022-09-13T18:25:44;2.00;;;1.80;;
4061;SDS011;2046;47.064;15.456;2022-09-13T18:28:27;2.67;;;2.00;;
4061;SDS011;2046;47.064;15.456;2022-09-13T18:30:55;3.42;;;2.00;;
4061;SDS011;2046;47.064;15.456;2022-09-13T18:33:22;2.92;;;2.00;;
4061;SDS011;2046;47.064;15.456;2022-09-13T18:36:05;2.10;;;1.90;;